Time;durP1;ratioP1;P1;durP2;ratioP2;P2;SDS_P1;SDS_P2;PMS_P1;PMS_P2;Temp;Humidity;BMP_temperature;BMP_pressure;BME280_temperature;BME280_humidity;BME280_pressure;Samples;Min_cycle;Max_cycle;Signal;HPM_P1;HPM_P2
2023/09/25 00:01:56;;;;;;;0.25;0.25;;;;;;;22.42;61.97;101279.75;5027511;28;20389;-79
2023/09/25 00:04:25;;;;;;;0.70;0.70;;;;;;;22.42;61.72;101274.34;5027489;28;20374;-78
2023/09/25 00:06:51;;;;;;;0.70;0.60;;;;;;;22.34;61.79;101275.53;5027218;28;20472;-81
2023/09/25 00:09:17;;;;;;;0.40;0.40;;;;;;;22.12;62.30;101272.56;5026697;28;20449;-80
2023/09/25 00:11:42;;;;;;;0.47;0.47;;;;;;;21.97;63.05;101262.22;5025334;28;21319;-79
2023/09/25 00:14:11;;;;;;;0.20;0.20;;;;;;;21.85;63.52;101256.78;5025901;28;20386;-80
2023/09/25 00:16:37;;;;;;;0.25;0.25;;;;;;;21.89;63.38;101257.97;5026664;28;20473;-80
2023/09/25 00:19:04;;;;;;;0.50;0.47;;;;;;;21.81;63.40;101263.72;5027427;28;20392;-80
2023/09/25 00:21:30;;;;;;;0.28;0.28;;;;;;;21.86;62.95;101269.25;5028505;28;20468;-79
2023/09/25 00:23:56;;;;;;;0.17;0.17;;;;;;;21.92;62.77;101273.69;5027927;28;20466;-80
2023/09/25 00:26:21;;;;;;;0.50;0.50;;;;;;;21.94;62.89;101265.38;5025844;28;20406;-80
2023/09/25 00:28:47;;;;;;;0.60;0.40;;;;;;;21.98;62.62;101276.53;5026270;28;20413;-79
2023/09/25 00:31:12;;;;;;;0.70;0.30;;;;;;;21.94;62.87;101277.00;5026647;28;20418;-79
2023/09/25 00:33:38;;;;;;;0.40;0.30;;;;;;;21.83;62.87;101285.91;5024475;28;20390;-80
2023/09/25 00:36:05;;;;;;;0.30;0.30;;;;;;;22.02;62.55;101288.50;5026072;28;20442;-81
2023/09/25 00:38:31;;;;;;;0.30;0.30;;;;;;;22.01;62.49;101295.78;5026568;28;20951;-80
2023/09/25 00:40:57;;;;;;;0.30;0.30;;;;;;;21.67;63.08;101302.75;5027345;28;20463;-79
2023/09/25 00:43:23;;;;;;;0.93;0.63;;;;;;;21.61;63.40;101301.78;5027530;28;20386;-79
2023/09/25 00:45:49;;;;;;;0.40;0.40;;;;;;;21.71;63.26;101299.34;5027171;28;20445;-76
2023/09/25 00:48:28;;;;;;;0.30;0.30;;;;;;;21.63;63.43;101296.16;5024805;28;20496;-80
2023/09/25 00:50:57;;;;;;;0.50;0.40;;;;;;;21.74;63.28;101298.88;5041953;28;21055;-77
2023/09/25 00:53:24;;;;;;;0.73;0.52;;;;;;;21.89;62.66;101298.44;5027396;28;20892;-78
2023/09/25 00:55:51;;;;;;;0.40;0.30;;;;;;;22.02;62.05;101294.75;5009306;28;20746;-79
2023/09/25 00:58:17;;;;;;;0.35;0.35;;;;;;;22.02;62.01;101300.16;5025389;28;20519;-81
2023/09/25 01:00:43;;;;;;;0.70;0.70;;;;;;;22.09;61.80;101289.22;5025485;28;20398;-79
2023/09/25 01:03:11;;;;;;;0.28;0.28;;;;;;;22.06;61.76;101274.31;5026645;28;20389;-80
2023/09/25 01:05:38;;;;;;;0.30;0.30;;;;;;;22.07;61.67;101281.34;5026985;28;20416;-80
2023/09/25 01:08:04;;;;;;;0.30;0.30;;;;;;;22.14;61.55;101294.75;5025777;28;20944;-79
2023/09/25 01:10:30;;;;;;;0.30;0.20;;;;;;;22.04;61.83;101289.94;5027214;28;20432;-79
2023/09/25 01:13:00;;;;;;;0.40;0.30;;;;;;;21.82;62.31;101286.94;5026871;28;20800;-80
2023/09/25 01:15:26;;;;;;;0.40;0.40;;;;;;;21.77;62.39;101287.66;5026892;28;20512;-80
2023/09/25 01:17:52;;;;;;;0.22;0.22;;;;;;;21.87;62.30;101303.25;5026546;28;20444;-79
2023/09/25 01:20:19;;;;;;;0.25;0.25;;;;;;;21.90;62.05;101316.31;5026580;28;20440;-81
2023/09/25 01:22:48;;;;;;;0.38;0.30;;;;;;;22.02;62.23;101319.03;5025341;28;20417;-80
2023/09/25 01:25:15;;;;;;;0.40;0.40;;;;;;;22.10;61.54;101324.09;5026739;28;20382;-80
2023/09/25 01:27:45;;;;;;;0.37;0.33;;;;;;;22.16;61.58;101327.72;5025048;28;20739;-79
2023/09/25 01:30:15;;;;;;;0.70;0.70;;;;;;;22.20;61.27;101325.41;5025752;28;20405;-78
2023/09/25 01:32:44;;;;;;;0.30;0.25;;;;;;;22.09;61.68;101318.91;5022879;28;20548;-78
2023/09/25 01:35:18;;;;;;;0.30;0.30;;;;;;;21.93;62.11;101320.41;5041506;28;20457;-80
2023/09/25 01:37:48;;;;;;;0.32;0.32;;;;;;;21.99;61.99;101319.50;5025320;28;20398;-80
2023/09/25 01:40:17;;;;;;;0.25;0.25;;;;;;;21.95;62.07;101319.13;5028793;28;20911;-80
2023/09/25 01:42:46;;;;;;;0.40;0.40;;;;;;;21.91;62.00;101323.38;5028668;28;20389;-80
2023/09/25 01:45:17;;;;;;;0.80;0.60;;;;;;;21.87;62.42;101322.16;5029376;28;21236;-82
2023/09/25 01:47:48;;;;;;;0.38;0.38;;;;;;;21.92;62.17;101311.50;5044239;28;20406;-80
2023/09/25 01:50:18;;;;;;;0.40;0.35;;;;;;;21.98;61.89;101334.03;5029643;28;21311;-80
2023/09/25 01:52:47;;;;;;;0.30;0.30;;;;;;;21.92;62.05;101318.78;5029430;28;20426;-78
2023/09/25 01:55:18;;;;;;;1.08;0.77;;;;;;;21.88;62.14;101321.13;5030429;28;20378;-81
2023/09/25 01:57:44;;;;;;;0.30;0.28;;;;;;;21.86;61.86;101325.06;5026615;28;20425;-78
2023/09/25 02:00:13;;;;;;;0.30;0.30;;;;;;;21.88;61.73;101302.22;5030762;28;20921;-79
2023/09/25 02:02:41;;;;;;;0.20;0.20;;;;;;;21.95;61.57;101318.31;5029813;28;20451;-79
2023/09/25 02:05:07;;;;;;;0.40;0.40;;;;;;;22.00;61.50;101317.63;5030649;28;20409;-79
2023/09/25 02:07:33;;;;;;;0.40;0.30;;;;;;;22.10;61.25;101320.56;5030039;28;20406;-79
2023/09/25 02:09:59;;;;;;;0.47;0.37;;;;;;;22.18;61.04;101335.59;5050675;28;20459;-78
2023/09/25 02:12:27;;;;;;;0.30;0.30;;;;;;;22.15;61.07;101334.22;5034491;28;20852;-77
2023/09/25 02:14:56;;;;;;;0.20;0.20;;;;;;;22.16;61.05;101330.44;5030503;28;20465;-79
2023/09/25 02:17:22;;;;;;;0.30;0.30;;;;;;;22.19;60.94;101331.88;5029052;28;20390;-79
2023/09/25 02:19:47;;;;;;;0.43;0.33;;;;;;;22.13;60.82;101331.72;5030768;28;20389;-79
2023/09/25 02:22:13;;;;;;;0.30;0.30;;;;;;;22.04;61.12;101337.69;5030323;28;20378;-78
2023/09/25 02:24:41;;;;;;;0.37;0.37;;;;;;;22.07;61.09;101338.03;5029004;28;20397;-79
2023/09/25 02:27:07;;;;;;;0.28;0.28;;;;;;;21.96;61.00;101339.66;5030506;28;20410;-79
2023/09/25 02:29:32;;;;;;;0.30;0.25;;;;;;;21.95;61.25;101345.31;5030299;28;20536;-78
2023/09/25 02:31:58;;;;;;;0.60;0.50;;;;;;;21.99;61.16;101343.78;5030288;28;20480;-81
2023/09/25 02:34:23;;;;;;;0.37;0.37;;;;;;;21.94;61.02;101343.66;5028451;28;20419;-80
2023/09/25 02:36:50;;;;;;;0.38;0.30;;;;;;;21.92;61.09;101341.19;5029423;28;20398;-75
2023/09/25 02:39:16;;;;;;;0.38;0.28;;;;;;;21.96;60.99;101344.25;5011121;28;20405;-80
2023/09/25 02:41:41;;;;;;;0.32;0.32;;;;;;;21.86;61.00;101352.91;5028635;28;20472;-79
2023/09/25 02:44:07;;;;;;;1.07;0.80;;;;;;;21.94;60.94;101349.06;5029101;28;20485;-78
2023/09/25 02:46:32;;;;;;;0.30;0.30;;;;;;;21.87;60.76;101335.66;5027699;28;20485;-79
2023/09/25 02:48:58;;;;;;;0.40;0.40;;;;;;;21.84;60.75;101346.94;5029403;28;20476;-80
2023/09/25 02:51:24;;;;;;;0.40;0.40;;;;;;;21.86;60.54;101358.31;5026432;28;20402;-79
2023/09/25 02:53:52;;;;;;;0.40;0.30;;;;;;;21.75;60.67;101353.66;5027873;28;20391;-78
2023/09/25 02:56:18;;;;;;;0.40;0.40;;;;;;;21.78;60.59;101364.03;5027671;28;20390;-79
2023/09/25 02:58:44;;;;;;;0.30;0.30;;;;;;;21.76;60.41;101364.25;5027230;28;20394;-79
2023/09/25 03:01:10;;;;;;;0.40;0.40;;;;;;;21.83;60.36;101371.44;5027714;28;20401;-80
2023/09/25 03:03:35;;;;;;;0.50;0.50;;;;;;;21.92;60.06;101375.47;5043400;28;20472;-78
2023/09/25 03:06:01;;;;;;;0.50;0.50;;;;;;;21.80;59.75;101383.50;5028774;28;20406;-79
2023/09/25 03:08:26;;;;;;;0.47;0.40;;;;;;;21.68;59.85;101391.56;5028907;28;20402;-78
2023/09/25 03:10:52;;;;;;;0.30;0.23;;;;;;;21.58;60.18;101391.25;5027705;28;20441;-80
2023/09/25 03:13:19;;;;;;;0.30;0.28;;;;;;;21.62;59.94;101394.34;5028761;28;20383;-80
2023/09/25 03:15:44;;;;;;;0.50;0.50;;;;;;;21.55;59.75;101394.41;5027999;28;20440;-80
2023/09/25 03:18:11;;;;;;;0.20;0.20;;;;;;;21.50;59.74;101402.34;5029466;28;20918;-80
2023/09/25 03:20:38;;;;;;;0.30;0.30;;;;;;;21.49;59.82;101406.13;5029268;28;20465;-79
2023/09/25 03:23:04;;;;;;;0.22;0.22;;;;;;;21.49;59.97;101412.31;5027578;28;20418;-81
2023/09/25 03:25:37;;;;;;;0.20;0.20;;;;;;;21.52;59.64;101414.59;5029162;28;20765;-79
2023/09/25 03:28:07;;;;;;;0.20;0.20;;;;;;;21.58;59.62;101429.03;5029807;28;20440;-80
2023/09/25 03:30:38;;;;;;;0.10;0.10;;;;;;;21.46;59.56;101430.84;5030906;28;20383;-79
2023/09/25 03:33:04;;;;;;;0.40;0.40;;;;;;;21.39;59.64;101437.09;5046893;28;20386;-78
2023/09/25 03:35:32;;;;;;;0.20;0.20;;;;;;;21.37;59.63;101443.75;5029770;28;20415;-79
2023/09/25 03:37:59;;;;;;;0.80;0.80;;;;;;;21.25;59.54;101441.00;5030052;28;20832;-78
2023/09/25 03:40:26;;;;;;;0.70;0.30;;;;;;;21.27;59.58;101441.59;5030094;28;20390;-79
2023/09/25 03:42:54;;;;;;;0.20;0.20;;;;;;;21.32;59.43;101446.28;5031203;28;20451;-80
2023/09/25 03:45:20;;;;;;;0.20;0.20;;;;;;;21.18;59.68;101445.63;5045056;28;20473;-77
2023/09/25 03:47:45;;;;;;;0.28;0.28;;;;;;;21.13;59.79;101445.47;5026575;28;20499;-77
2023/09/25 03:50:11;;;;;;;0.20;0.20;;;;;;;21.18;59.75;101457.22;5011667;28;20472;-78
2023/09/25 03:52:36;;;;;;;0.20;0.20;;;;;;;21.16;59.56;101453.13;5011342;28;20479;-80
2023/09/25 03:55:02;;;;;;;0.30;0.30;;;;;;;21.19;59.51;101460.75;5011250;28;20449;-78
2023/09/25 03:57:28;;;;;;;0.20;0.20;;;;;;;21.16;59.67;101459.31;5011138;28;20384;-78
2023/09/25 03:59:53;;;;;;;0.30;0.30;;;;;;;21.20;59.68;101463.22;5010035;28;20395;-80
2023/09/25 04:02:20;;;;;;;0.20;0.20;;;;;;;21.27;59.52;101463.16;5010817;28;20392;-81
2023/09/25 04:04:48;;;;;;;0.20;0.20;;;;;;;21.31;59.60;101460.84;5009841;28;20392;-80
2023/09/25 04:07:13;;;;;;;0.30;0.20;;;;;;;21.31;59.30;101452.75;5009754;28;20408;-78
2023/09/25 04:09:39;;;;;;;0.28;0.20;;;;;;;21.35;59.24;101462.84;5010943;28;20394;-78
2023/09/25 04:12:05;;;;;;;1.50;1.30;;;;;;;21.23;59.48;101461.97;5011152;28;20482;-79
2023/09/25 04:14:35;;;;;;;0.30;0.30;;;;;;;21.27;59.43;101473.13;5025040;28;20507;-79
2023/09/25 04:17:01;;;;;;;0.50;0.50;;;;;;;21.25;59.58;101465.25;5018961;28;20421;-81
2023/09/25 04:19:29;;;;;;;0.35;0.35;;;;;;;21.23;59.75;101471.91;5028814;28;20403;-81
2023/09/25 04:21:54;;;;;;;0.20;0.20;;;;;;;21.19;59.83;101480.47;5014294;28;20384;-79
2023/09/25 04:24:20;;;;;;;0.17;0.17;;;;;;;21.20;59.56;101479.41;5008843;28;20487;-79
2023/09/25 04:26:47;;;;;;;0.30;0.30;;;;;;;21.18;59.89;101486.88;5009759;28;20407;-81
2023/09/25 04:29:17;;;;;;;0.30;0.30;;;;;;;21.16;60.10;101491.69;5009085;28;20491;-80
2023/09/25 04:31:46;;;;;;;0.30;0.30;;;;;;;21.22;60.00;101495.34;5010801;28;20376;-79
2023/09/25 04:34:14;;;;;;;0.25;0.25;;;;;;;21.28;59.86;101497.16;4977252;28;20415;-80
2023/09/25 04:36:45;;;;;;;0.60;0.30;;;;;;;21.30;59.82;101505.03;5010551;28;20392;-80
2023/09/25 04:39:12;;;;;;;0.40;0.40;;;;;;;21.20;59.99;101498.28;5010946;28;20388;-80
2023/09/25 04:41:37;;;;;;;0.25;0.20;;;;;;;21.26;60.02;101501.94;5008881;28;20396;-80
2023/09/25 04:44:07;;;;;;;0.27;0.20;;;;;;;21.28;59.93;101504.44;5009278;28;20396;-81
2023/09/25 04:46:32;;;;;;;0.20;0.20;;;;;;;21.30;59.88;101513.13;5025924;28;20494;-81
2023/09/25 04:49:01;;;;;;;0.30;0.30;;;;;;;21.33;60.00;101508.09;5025314;28;20487;-80
2023/09/25 04:51:27;;;;;;;0.40;0.40;;;;;;;21.38;59.79;101513.66;5025598;28;20915;-80
2023/09/25 04:53:52;;;;;;;0.40;0.30;;;;;;;21.24;60.35;101501.34;5009691;28;20395;-80
2023/09/25 04:56:20;;;;;;;0.25;0.25;;;;;;;21.23;60.28;101518.59;5024482;28;20945;-81
2023/09/25 05:01:14;;;;;;;0.20;0.20;;;;;;;21.35;60.13;101516.78;5047497;28;20439;-80
2023/09/25 05:03:40;;;;;;;0.20;0.20;;;;;;;21.39;60.13;101531.50;5031848;28;20391;-79
2023/09/25 05:06:11;;;;;;;0.40;0.38;;;;;;;21.41;59.99;101528.59;5015412;28;20413;-79
2023/09/25 05:08:38;;;;;;;0.20;0.20;;;;;;;21.45;59.97;101526.28;5032591;28;20381;-80
2023/09/25 05:11:08;;;;;;;0.10;0.10;;;;;;;21.74;60.00;101538.25;5032493;28;20438;-80
2023/09/25 05:13:34;;;;;;;0.30;0.30;;;;;;;22.03;59.85;101535.84;5032261;28;20376;-81
2023/09/25 05:16:03;;;;;;;0.20;0.20;;;;;;;22.17;59.69;101537.31;5054311;28;20395;-81
2023/09/25 05:18:30;;;;;;;0.30;0.30;;;;;;;22.43;59.17;101543.44;5053875;28;20491;-80
2023/09/25 05:21:01;;;;;;;0.20;0.20;;;;;;;22.38;58.99;101551.41;5036087;28;20409;-79
2023/09/25 05:23:31;;;;;;;0.28;0.28;;;;;;;22.29;58.83;101550.91;5036800;28;20393;-79
2023/09/25 05:25:59;;;;;;;0.30;0.30;;;;;;;22.50;58.68;101553.09;5035874;28;20388;-80
2023/09/25 05:28:26;;;;;;;0.20;0.20;;;;;;;22.54;58.71;101553.47;5014183;28;20441;-81
2023/09/25 05:31:00;;;;;;;0.20;0.20;;;;;;;22.52;58.52;101564.50;5054185;28;20435;-79
2023/09/25 05:33:26;;;;;;;0.30;0.20;;;;;;;22.51;58.42;101560.16;5034248;28;20896;-80
2023/09/25 05:35:51;;;;;;;0.10;0.10;;;;;;;22.49;58.82;101567.69;5053347;28;20403;-79
2023/09/25 05:38:17;;;;;;;0.40;0.40;;;;;;;22.64;58.21;101566.44;5053483;28;20391;-80
2023/09/25 05:40:42;;;;;;;0.30;0.30;;;;;;;22.54;58.18;101569.69;5051790;28;20499;-80
2023/09/25 05:43:09;;;;;;;0.20;0.20;;;;;;;22.69;58.49;101570.09;5053471;28;20392;-80
2023/09/25 05:45:34;;;;;;;2.22;1.30;;;;;;;22.59;58.41;101569.81;5035387;28;20396;-81
2023/09/25 05:48:00;;;;;;;0.20;0.20;;;;;;;22.55;58.41;101579.47;5052216;28;20408;-81
2023/09/25 05:50:26;;;;;;;0.28;0.28;;;;;;;22.56;58.64;101580.28;5043535;28;20421;-79
2023/09/25 05:52:51;;;;;;;0.28;0.28;;;;;;;22.55;58.61;101579.47;5053348;28;20420;-80
2023/09/25 05:55:17;;;;;;;0.40;0.40;;;;;;;22.60;58.84;101584.16;5052644;28;20470;-80
2023/09/25 05:57:45;;;;;;;0.20;0.20;;;;;;;22.85;58.25;101592.97;5036464;28;20395;-83
2023/09/25 06:00:12;;;;;;;0.20;0.20;;;;;;;22.91;58.21;101588.50;5053019;28;20424;-81
2023/09/25 06:02:41;;;;;;;0.30;0.30;;;;;;;22.81;58.29;101582.81;5035211;28;20400;-81
2023/09/25 06:05:09;;;;;;;0.30;0.30;;;;;;;22.94;58.25;101576.41;5026454;28;20402;-83
2023/09/25 06:07:35;;;;;;;0.10;0.10;;;;;;;23.41;57.58;101579.22;5027970;28;20491;-81
2023/09/25 06:10:07;;;;;;;0.20;0.20;;;;;;;23.46;57.30;101590.97;5030777;28;20386;-82
2023/09/25 06:12:33;;;;;;;0.35;0.35;;;;;;;23.26;57.65;101594.03;5030677;28;20398;-81
2023/09/25 06:14:59;;;;;;;0.30;0.30;;;;;;;23.16;57.97;101591.06;5029985;28;20496;-81
2023/09/25 06:17:27;;;;;;;0.27;0.27;;;;;;;23.18;57.98;101599.75;5013466;28;20429;-80
2023/09/25 06:19:53;;;;;;;0.30;0.30;;;;;;;23.09;58.57;101595.75;5013749;28;20386;-80
2023/09/25 06:22:22;;;;;;;0.20;0.20;;;;;;;23.03;58.57;101597.47;5013666;28;20394;-79
2023/09/25 06:24:48;;;;;;;0.40;0.30;;;;;;;22.91;59.02;101605.53;5030281;28;20378;-78
2023/09/25 06:27:17;;;;;;;0.40;0.20;;;;;;;22.84;59.40;101607.53;5012758;28;20407;-80
2023/09/25 06:29:45;;;;;;;0.15;0.15;;;;;;;22.93;59.25;101599.09;5013513;28;20893;-78
2023/09/25 06:32:12;;;;;;;0.30;0.30;;;;;;;22.85;59.23;101621.84;5013115;28;20397;-78
2023/09/25 06:34:41;;;;;;;0.13;0.13;;;;;;;22.91;59.27;101621.75;5029939;28;20897;-78
2023/09/25 06:37:07;;;;;;;0.27;0.27;;;;;;;23.02;58.94;101614.75;5013462;28;20398;-78
2023/09/25 06:39:33;;;;;;;0.20;0.20;;;;;;;23.03;58.47;101616.41;5032051;28;20399;-77
2023/09/25 06:41:59;;;;;;;0.30;0.30;;;;;;;22.87;58.24;101614.38;5034214;28;20951;-78
2023/09/25 06:44:24;;;;;;;0.32;0.32;;;;;;;22.72;58.08;101609.34;5052385;28;20487;-77
2023/09/25 06:46:52;;;;;;;0.30;0.30;;;;;;;22.83;58.19;101629.38;5051957;28;20427;-77
2023/09/25 06:49:19;;;;;;;7.30;0.90;;;;;;;22.70;58.43;101604.16;5034343;28;20392;-80
2023/09/25 06:51:48;;;;;;;0.30;0.30;;;;;;;22.73;58.64;101618.31;5036025;28;20845;-89
2023/09/25 06:54:18;;;;;;;0.43;0.43;;;;;;;22.56;58.51;101615.41;5020400;28;20472;-82
2023/09/25 06:57:10;;;;;;;0.20;0.20;;;;;;;22.55;58.64;101616.47;5036133;28;20453;-87
2023/09/25 06:59:37;;;;;;;0.20;0.20;;;;;;;22.84;58.44;101620.22;4985751;28;20413;-82
2023/09/25 07:02:04;;;;;;;0.20;0.20;;;;;;;22.94;58.00;101617.78;5052263;28;20450;-81
2023/09/25 07:04:29;;;;;;;0.40;0.40;;;;;;;23.05;58.17;101627.03;5017582;28;20970;-82
2023/09/25 07:06:57;;;;;;;0.60;0.52;;;;;;;23.04;57.98;101625.34;5052475;28;20396;-83
2023/09/25 07:09:23;;;;;;;0.25;0.25;;;;;;;23.11;58.09;101631.50;5034290;28;20434;-84
2023/09/25 07:11:49;;;;;;;0.50;0.50;;;;;;;22.84;58.32;101633.75;5017051;28;20389;-83
2023/09/25 07:14:16;;;;;;;0.20;0.20;;;;;;;23.02;58.27;101636.38;5033326;28;20389;-84
2023/09/25 07:16:44;;;;;;;0.40;0.40;;;;;;;22.97;57.79;101630.03;5016535;28;20830;-80
2023/09/25 07:19:10;;;;;;;0.30;0.30;;;;;;;22.94;58.00;101635.88;5016681;28;20450;-82
2023/09/25 07:21:41;;;;;;;0.30;0.28;;;;;;;22.94;58.00;101638.59;5052122;28;20408;-85
2023/09/25 07:24:07;;;;;;;0.17;0.17;;;;;;;23.01;57.66;101642.00;5018508;28;20871;-82
2023/09/25 07:26:33;;;;;;;0.30;0.30;;;;;;;22.99;57.98;101642.25;5052268;28;20397;-83
2023/09/25 07:28:59;;;;;;;0.20;0.20;;;;;;;23.16;57.54;101641.63;5034485;28;20400;-84
2023/09/25 07:31:32;;;;;;;0.22;0.22;;;;;;;23.22;57.33;101646.09;5035714;28;20737;-84
2023/09/25 07:34:10;;;;;;;0.60;0.60;;;;;;;23.20;57.52;101649.03;5053976;28;20462;-89
2023/09/25 07:36:36;;;;;;;0.20;0.20;;;;;;;23.01;57.44;101644.72;5019664;28;20454;-84
2023/09/25 07:39:04;;;;;;;0.38;0.38;;;;;;;22.93;57.43;101647.75;5052918;28;20385;-85
2023/09/25 07:41:32;;;;;;;0.50;0.50;;;;;;;23.11;56.88;101649.63;5056236;28;20393;-83
2023/09/25 07:43:59;;;;;;;0.40;0.40;;;;;;;23.19;56.41;101654.69;5014485;28;20392;-83
2023/09/25 07:46:31;;;;;;;0.50;0.50;;;;;;;23.16;56.72;101644.34;5011947;28;20408;-79
2023/09/25 07:49:05;;;;;;;0.22;0.22;;;;;;;23.56;56.29;101649.94;4993259;28;20418;-86
2023/09/25 07:51:36;;;;;;;0.30;0.30;;;;;;;23.78;55.76;101654.75;5009308;28;20384;-83
2023/09/25 07:54:29;;;;;;;0.25;0.25;;;;;;;23.81;55.36;101646.22;5007847;28;20498;-86
2023/09/25 07:56:55;;;;;;;3.20;1.00;;;;;;;23.88;55.30;101648.78;5008042;28;20478;-84
2023/09/25 07:59:25;;;;;;;0.35;0.32;;;;;;;24.04;55.03;101650.78;4976567;28;20424;-83
2023/09/25 08:01:55;;;;;;;0.30;0.30;;;;;;;23.90;54.78;101646.69;5009615;28;20411;-85
2023/09/25 08:04:22;;;;;;;0.30;0.30;;;;;;;24.01;54.65;101646.66;4993278;28;20899;-84
2023/09/25 08:06:56;;;;;;;0.30;0.30;;;;;;;24.15;54.04;101641.81;4994550;28;20424;-86
2023/09/25 08:09:22;;;;;;;1.20;1.10;;;;;;;23.95;54.04;101652.19;4993496;28;20835;-84
2023/09/25 08:11:50;;;;;;;1.10;1.00;;;;;;;23.81;54.45;101655.16;5008719;28;20398;-84
2023/09/25 08:14:17;;;;;;;0.28;0.28;;;;;;;23.64;54.57;101649.59;5002009;28;20508;-83
2023/09/25 08:16:55;;;;;;;1.55;0.80;;;;;;;23.77;54.51;101651.25;5050928;28;20975;-86
2023/09/25 08:19:22;;;;;;;0.40;0.40;;;;;;;23.84;54.28;101649.28;4969025;28;20404;-83
2023/09/25 08:21:53;;;;;;;0.40;0.40;;;;;;;23.97;53.89;101648.19;5051042;28;20486;-84
2023/09/25 08:24:24;;;;;;;0.30;0.30;;;;;;;24.07;53.94;101653.00;5034593;28;20393;-84
2023/09/25 08:26:52;;;;;;;0.20;0.20;;;;;;;23.87;53.79;101650.66;5017489;28;20942;-83
2023/09/25 08:29:18;;;;;;;0.50;0.50;;;;;;;23.98;53.74;101654.44;5018217;28;20476;-85
2023/09/25 08:31:44;;;;;;;0.20;0.20;;;;;;;23.89;53.15;101651.25;5052092;28;20464;-82
2023/09/25 08:34:15;;;;;;;0.20;0.20;;;;;;;23.72;53.30;101648.41;5052287;28;20376;-85
2023/09/25 08:36:41;;;;;;;0.40;0.40;;;;;;;23.76;52.85;101636.03;5033684;28;20392;-84
2023/09/25 08:39:13;;;;;;;0.28;0.28;;;;;;;23.79;52.42;101646.41;5033964;28;20442;-83
2023/09/25 08:41:46;;;;;;;0.70;0.63;;;;;;;23.83;52.16;101652.22;5016410;28;20388;-83
2023/09/25 08:44:21;;;;;;;0.22;0.20;;;;;;;23.89;52.20;101655.84;4999928;28;20384;-84
2023/09/25 08:46:48;;;;;;;0.50;0.50;;;;;;;23.98;51.91;101651.72;5050772;28;20397;-84
2023/09/25 08:49:14;;;;;;;0.32;0.32;;;;;;;24.17;51.92;101644.28;5050065;28;20376;-84
2023/09/25 08:51:41;;;;;;;0.32;0.32;;;;;;;24.21;51.88;101648.97;5032970;28;20384;-84
2023/09/25 08:54:10;;;;;;;1.80;0.35;;;;;;;24.26;51.61;101644.75;5032345;28;20465;-84
2023/09/25 08:56:41;;;;;;;0.60;0.60;;;;;;;24.30;51.40;101645.91;5051082;28;20879;-85
2023/09/25 08:59:11;;;;;;;0.30;0.30;;;;;;;24.31;51.25;101639.41;5050653;28;20763;-84
2023/09/25 09:01:37;;;;;;;0.70;0.45;;;;;;;24.40;51.30;101633.41;5034365;28;20454;-84
2023/09/25 09:04:07;;;;;;;0.35;0.28;;;;;;;24.53;50.44;101635.03;5017860;28;20914;-83
2023/09/25 09:06:33;;;;;;;0.40;0.40;;;;;;;24.60;50.32;101645.75;5051511;28;20856;-84
2023/09/25 09:09:01;;;;;;;0.20;0.20;;;;;;;24.76;50.12;101644.97;5033085;28;20455;-85
2023/09/25 09:11:34;;;;;;;0.20;0.20;;;;;;;24.80;49.84;101646.13;5034514;28;20475;-84
2023/09/25 09:14:00;;;;;;;0.20;0.20;;;;;;;24.90;49.73;101644.66;5034417;28;20895;-85
2023/09/25 09:16:25;;;;;;;0.60;0.40;;;;;;;25.10;49.73;101649.63;5033284;28;20775;-84
2023/09/25 09:19:17;;;;;;;0.20;0.20;;;;;;;24.99;49.28;101644.03;5017383;28;20415;-87
2023/09/25 09:21:44;;;;;;;0.25;0.25;;;;;;;25.08;49.42;101640.91;5003822;28;20377;-83
2023/09/25 09:24:32;;;;;;;0.30;0.30;;;;;;;25.21;49.29;101645.19;5033867;28;20745;-83
2023/09/25 09:27:01;;;;;;;0.43;0.43;;;;;;;25.23;49.34;101641.19;5051042;28;20407;-85
2023/09/25 09:29:40;;;;;;;0.22;0.22;;;;;;;25.09;48.69;101634.44;5051892;28;20426;-84
2023/09/25 09:32:08;;;;;;;0.30;0.30;;;;;;;25.20;49.05;101641.66;5017624;28;20834;-83
2023/09/25 09:34:43;;;;;;;0.20;0.20;;;;;;;25.53;48.76;101648.19;5033614;28;20429;-84
2023/09/25 09:37:14;;;;;;;0.30;0.30;;;;;;;25.57;48.22;101649.38;5032759;28;20850;-84
2023/09/25 09:39:45;;;;;;;0.30;0.30;;;;;;;25.63;48.06;101644.84;5028922;28;20967;-83
2023/09/25 09:42:14;;;;;;;0.40;0.40;;;;;;;25.63;47.79;101647.56;5050274;28;20416;-85
2023/09/25 09:44:40;;;;;;;0.40;0.40;;;;;;;25.49;47.52;101638.91;5031797;28;20458;-83
2023/09/25 09:47:09;;;;;;;0.13;0.13;;;;;;;25.46;47.54;101653.81;5032004;28;20416;-83
2023/09/25 09:49:37;;;;;;;0.47;0.47;;;;;;;25.58;47.79;101648.28;5052269;28;20434;-83
2023/09/25 09:52:10;;;;;;;0.73;0.73;;;;;;;25.62;47.38;101643.19;5057933;28;20517;-83
2023/09/25 09:54:42;;;;;;;0.22;0.22;;;;;;;25.70;47.60;101661.78;5018503;28;20440;-83
2023/09/25 09:57:09;;;;;;;0.50;0.50;;;;;;;25.63;48.02;101642.13;5052456;28;20380;-85
2023/09/25 09:59:38;;;;;;;0.17;0.17;;;;;;;25.70;47.40;101649.00;5016870;28;20420;-85
2023/09/25 10:02:06;;;;;;;0.30;0.30;;;;;;;25.82;47.03;101643.50;5002712;28;20395;-85
2023/09/25 10:04:34;;;;;;;0.20;0.20;;;;;;;25.95;46.69;101636.91;5037714;28;20479;-84
2023/09/25 10:07:05;;;;;;;0.20;0.20;;;;;;;25.98;46.59;101630.16;5036937;28;20871;-84
2023/09/25 10:09:32;;;;;;;0.30;0.30;;;;;;;25.98;46.00;101638.28;5056291;28;20380;-86
2023/09/25 10:12:01;;;;;;;0.30;0.30;;;;;;;25.96;46.07;101640.44;5037967;28;20388;-83
2023/09/25 10:14:29;;;;;;;0.10;0.10;;;;;;;25.98;46.26;101627.44;5028099;28;20440;-84
2023/09/25 10:17:09;;;;;;;0.17;0.17;;;;;;;26.03;46.34;101622.06;5057347;28;20377;-85
2023/09/25 10:19:52;;;;;;;0.38;0.30;;;;;;;26.20;45.85;101622.00;5037623;28;20480;-83
2023/09/25 10:22:29;;;;;;;0.25;0.25;;;;;;;26.18;45.62;101629.59;5053492;28;20925;-84
2023/09/25 10:25:18;;;;;;;0.30;0.30;;;;;;;26.26;45.88;101627.25;5037423;28;20388;-85
2023/09/25 10:27:44;;;;;;;0.20;0.20;;;;;;;26.41;45.96;101618.44;4975772;28;20420;-84
2023/09/25 10:30:17;;;;;;;0.30;0.30;;;;;;;26.54;45.65;101619.94;5053920;28;20381;-85
2023/09/25 10:32:56;;;;;;;0.65;0.65;;;;;;;26.56;45.53;101616.97;5054889;28;20432;-84
2023/09/25 10:35:54;;;;;;;0.30;0.30;;;;;;;26.56;45.17;101615.09;5038773;28;20968;-85
2023/09/25 10:38:26;;;;;;;0.70;0.40;;;;;;;26.61;45.18;101617.06;5038593;28;20392;-84
2023/09/25 10:40:59;;;;;;;0.85;0.60;;;;;;;26.78;45.14;101611.53;5035531;28;20389;-86
2023/09/25 10:43:27;;;;;;;0.40;0.40;;;;;;;27.03;44.93;101611.78;4973569;28;20997;-84
2023/09/25 10:45:54;;;;;;;0.35;0.35;;;;;;;27.08;44.80;101608.25;4950427;29;20431;-84
2023/09/25 10:48:27;;;;;;;0.43;0.43;;;;;;;27.13;44.73;101605.59;4951451;29;20401;-85
2023/09/25 10:50:56;;;;;;;0.30;0.30;;;;;;;27.22;44.85;101606.75;4953530;29;20436;-84
2023/09/25 10:53:22;;;;;;;0.30;0.30;;;;;;;27.39;44.91;101608.56;4936967;29;20412;-84
2023/09/25 10:56:10;;;;;;;0.20;0.20;;;;;;;27.30;44.41;101604.66;4920732;29;20401;-88
2023/09/25 10:58:37;;;;;;;0.30;0.30;;;;;;;27.04;44.16;101604.44;4938408;29;20879;-86
2023/09/25 11:01:04;;;;;;;0.20;0.20;;;;;;;27.00;44.04;101606.84;4953006;29;20456;-83
2023/09/25 11:03:35;;;;;;;0.20;0.20;;;;;;;26.98;43.80;101609.00;4953651;29;20412;-86
2023/09/25 11:06:02;;;;;;;0.30;0.30;;;;;;;27.00;44.03;101598.69;4937250;29;20525;-86
2023/09/25 11:08:34;;;;;;;0.20;0.20;;;;;;;27.20;43.75;101594.50;4955907;29;20413;-88
2023/09/25 11:11:03;;;;;;;0.20;0.20;;;;;;;27.03;43.57;101600.88;4941589;29;20408;-86
2023/09/25 11:13:30;;;;;;;0.17;0.17;;;;;;;27.23;43.54;101597.50;4941847;28;20429;-87
2023/09/25 11:16:02;;;;;;;0.30;0.30;;;;;;;27.15;43.11;101592.53;4982219;28;20947;-91
2023/09/25 11:18:27;;;;;;;0.40;0.40;;;;;;;26.99;43.25;101590.78;5021656;28;20834;-86
2023/09/25 11:21:05;;;;;;;0.40;0.40;;;;;;;27.04;43.47;101586.19;5038073;28;20493;-87
2023/09/25 11:23:39;;;;;;;0.20;0.20;;;;;;;27.08;43.21;101590.06;5055494;28;20381;-88
2023/09/25 11:26:05;;;;;;;0.30;0.30;;;;;;;27.32;43.27;101578.00;4990402;28;20400;-86
2023/09/25 11:28:39;;;;;;;0.50;0.40;;;;;;;27.16;42.77;101571.59;5060668;28;20380;-86
2023/09/25 11:31:06;;;;;;;0.20;0.20;;;;;;;27.18;42.90;101567.53;5026457;28;20450;-85
2023/09/25 11:33:35;;;;;;;0.30;0.30;;;;;;;27.22;42.74;101562.38;5057490;28;20887;-87